Flight Track Log - Related Links

Times and Time Zones

All times are in EDT time to prevent confusion due to time zone crossing. See the SKW6306 flight status page for this flight to view local times or setup timezone preferences in your user account.

Time Position Orientation Groundspeed Altitude Reporting Facility
EDT Latitude Longitude Course Direction KTS MPH feet Rate Location/Type
Sun 06:26:26 PM 52.1667 -106.8333 198° South 210 242 3,800  Level Winnipeg Center
Sun 06:27:26 PM 52.1000 -106.9000 212° Southwest 260 299 6,200 2,250 Climbing Winnipeg Center
Sun 06:28:00 PM 51.8315 -106.8829 199° South  Level FlightAware Approximate
Sun 06:28:26 PM 52.0333 -106.9500 205° Southwest 290 334 8,300  Level Winnipeg Center
Sun 06:29:00 PM 51.7179 -106.9411 197° South  Level FlightAware Approximate
Sun 06:29:26 PM 51.9500 -106.9500 180° South 300 345 10,500  Level Winnipeg Center
Sun 06:30:00 PM 51.6048 -106.9952 212° Southwest  Level FlightAware Approximate
Sun 06:30:26 PM 51.8667 -107.0167 206° Southwest 320 368 11,900  Level Winnipeg Center
Sun 06:31:00 PM 51.4923 -107.0576 198° South  Level FlightAware Approximate
Sun 06:31:26 PM 51.7667 -107.0500 192° South 350 403 13,400  Level Winnipeg Center
Sun 06:32:26 PM 51.6667 -107.1167 202° Southwest 360 414 15,000 1,450 Climbing Winnipeg Center
Sun 06:33:26 PM 51.5667 -107.1333 186° South 370 426 16,300 1,350 Climbing Winnipeg Center
Sun 06:34:26 PM 51.4500 -107.2000 200° South 380 437 17,700 1,250 Climbing Winnipeg Center
Sun 06:35:26 PM 51.3667 -107.2333 194° South 390 449 18,800 1,100 Climbing Winnipeg Center
Sun 06:36:26 PM 51.2500 -107.2833 195° South 400 460 19,900 1,100 Climbing Winnipeg Center
Sun 06:37:26 PM 51.1333 -107.3333 195° South 400 460 21,000 1,000 Climbing Winnipeg Center
Sun 06:38:26 PM 51.0333 -107.4000 203° Southwest 410 472 21,900 900 Climbing Winnipeg Center
Sun 06:39:26 PM 50.9333 -107.4333 192° South 410 472 22,800 850 Climbing Winnipeg Center
Sun 06:40:26 PM 50.8167 -107.4833 195° South 420 483 23,600 800 Climbing Winnipeg Center
Sun 06:41:26 PM 50.7000 -107.5333 195° South 420 483 24,400 750 Climbing Winnipeg Center
Sun 06:42:26 PM 50.6000 -107.5833 198° South 420 483 25,100 650 Climbing Winnipeg Center
Sun 06:43:26 PM 50.4667 -107.6333 193° South 430 495 25,700 650 Climbing Winnipeg Center
Sun 06:44:26 PM 50.3500 -107.6833 195° South 430 495 26,400 500 Climbing Winnipeg Center
Sun 06:45:26 PM 50.2500 -107.7167 192° South 430 495 26,700 450 Climbing Winnipeg Center
Sun 06:46:26 PM 50.1167 -107.7333 185° South 440 506 27,300 550 Climbing Winnipeg Center
Sun 06:47:26 PM 49.9833 -107.7667 189° South 450 518 27,800 500 Climbing Winnipeg Center
Sun 06:48:26 PM 49.8667 -107.7667 180° South 440 506 28,300 500 Climbing Winnipeg Center
Sun 06:49:26 PM 49.7500 -107.7833 185° South 450 518 28,800 500 Climbing Winnipeg Center
Sun 06:50:26 PM 49.6167 -107.7833 180° South 440 506 29,300 500 Climbing Winnipeg Center
Sun 06:51:26 PM 49.5000 -107.8000 185° South 440 506 29,800 550 Climbing Winnipeg Center
Sun 06:52:26 PM 49.3833 -107.8333 191° South 450 518 30,400 500 Climbing Winnipeg Center
Sun 06:53:26 PM 49.2500 -107.8333 180° South 430 495 30,800 500 Climbing Winnipeg Center
Sun 06:54:26 PM 49.1333 -107.8500 185° South 440 506 31,400 550 Climbing Winnipeg Center
Sun 06:55:26 PM 49.0167 -107.8500 180° South 420 483 31,900 500 Climbing Winnipeg Center
Sun 06:56:26 PM 48.9167 -107.8833 192° South 420 483 32,400 475 Climbing Winnipeg Center
Sun 06:57:07 PM 48.8531 -107.8558 164° South 417 480 32,700 350 Climbing Salt Lake Center
Sun 06:58:09 PM 48.7378 -107.8669 184° South 417 480 33,000 146 Climbing Salt Lake Center
Sun 06:59:10 PM 48.6250 -107.8808 185° South 411 473 33,000  Level Salt Lake Center
Sun 07:00:12 PM 48.5094 -107.8936 184° South 414 476 33,000  Level Salt Lake Center
Sun 07:01:13 PM 48.3903 -107.9067 184° South 422 486 33,000  Level Salt Lake Center
Sun 07:02:15 PM 48.2708 -107.9086 181° South 428 493 33,000  Level Salt Lake Center
Sun 07:03:16 PM 48.1486 -107.8739 169° South 443 510 33,000  Level Salt Lake Center
Sun 07:04:18 PM 48.0297 -107.8419 170° South 441 507 33,000  Level Salt Lake Center
Sun 07:05:19 PM 47.8825 -107.8008 169° South 448 516 33,000  Level Salt Lake Center
Sun 07:06:20 PM 47.7600 -107.7686 170° South 448 516 33,000  Level Salt Lake Center
Sun 07:07:22 PM 47.6381 -107.7353 170° South 447 514 33,000  Level Salt Lake Center
Sun 07:08:23 PM 47.5158 -107.7033 170° South 447 514 33,000  Level Salt Lake Center
Sun 07:09:25 PM 47.3969 -107.6711 170° South 445 512 33,000  Level Salt Lake Center
Sun 07:10:26 PM 47.2614 -107.6336 169° South 444 511 33,000  Level Salt Lake Center
Sun 07:11:27 PM 47.1447 -107.6039 170° South 444 511 33,000  Level Salt Lake Center
Sun 07:12:29 PM 47.0083 -107.5686 170° South 446 513 33,000  Level Salt Lake Center
Sun 07:13:30 PM 46.8908 -107.5378 170° South 447 514 33,000  Level Salt Lake Center
Sun 07:14:32 PM 46.7725 -107.5058 170° South 449 517 33,000  Level Salt Lake Center
Sun 07:15:33 PM 46.6339 -107.4706 170° South 452 520 33,000  Level Salt Lake Center
Sun 07:16:34 PM 46.5158 -107.4394 170° South 452 520 33,000  Level Salt Lake Center
Sun 07:17:36 PM 46.3772 -107.4022 170° South 453 521 33,000  Level Salt Lake Center
Sun 07:18:37 PM 46.2586 -107.3722 170° South 452 520 33,000  Level Salt Lake Center
Sun 07:19:39 PM 46.1406 -107.3442 171° South 450 518 33,000  Level Salt Lake Center
Sun 07:20:40 PM 46.0011 -107.3072 170° South 454 522 33,000  Level Salt Lake Center
Sun 07:21:42 PM 45.8825 -107.2764 170° South 453 521 33,000  Level Salt Lake Center
Sun 07:22:43 PM 45.7433 -107.2419 170° South 454 522 33,000  Level Salt Lake Center
Sun 07:23:45 PM 45.6242 -107.2128 170° South 453 521 33,000  Level Salt Lake Center
Sun 07:24:46 PM 45.5044 -107.1822 170° South 456 525 33,000  Level Salt Lake Center
Sun 07:25:48 PM 45.3647 -107.1447 169° South 457 526 33,000  Level Salt Lake Center
Sun 07:26:49 PM 45.2481 -107.1208 172° South 448 516 33,000  Level Salt Lake Center
Sun 07:27:51 PM 45.1081 -107.0858 170° South 454 522 33,000  Level Salt Lake Center
Sun 07:28:52 PM 44.9889 -107.0558 170° South 453 521 33,000  Level Salt Lake Center
Sun 07:29:54 PM 44.8692 -107.0283 171° South 453 521 33,000  Level Salt Lake Center
Sun 07:30:56 PM 44.7303 -106.9931 170° South 451 519 33,000  Level Salt Lake Center
Sun 07:31:57 PM 44.6114 -106.9642 170° South 452 520 33,000  Level Salt Lake Center
Sun 07:32:59 PM 44.4914 -106.9378 171° South 454 522 33,000  Level Salt Lake Center
Sun 07:34:00 PM 44.3517 -106.9047 170° South 455 524 33,000  Level Salt Lake Center
Sun 07:35:02 PM 44.2333 -106.8767 170° South 452 520 33,000  Level Salt Lake Center
Sun 07:35:34 PM 44.1714 -106.8600 169° South 450 518 33,000  Level Denver Center
Sun 07:36:03 PM 44.0947 -106.8422 171° South 452 520 33,000  Level Salt Lake Center
Sun 07:37:05 PM 43.9728 -106.8142 171° South 452 520 33,000  Level Salt Lake Center
Sun 07:38:07 PM 43.8511 -106.7903 172° South 460 529 33,000  Level Salt Lake Center
Sun 07:38:40 PM 43.7750 -106.7683 168° South 453 521 33,000  Level Denver Center
Sun 07:39:42 PM 43.6569 -106.7389 170° South 451 519 33,000  Level Denver Center
Sun 07:40:43 PM 43.5578 -106.7169 171° South 452 520 33,000  Level Denver Center
Sun 07:41:46 PM 43.3994 -106.6797 170° South 453 521 33,000  Level Denver Center
Sun 07:42:48 PM 43.2614 -106.6483 171° South 451 519 33,000  Level Denver Center
Sun 07:43:50 PM 43.1450 -106.6222 171° South 445 512 33,000  Level Denver Center
Sun 07:44:52 PM 43.0078 -106.5897 170° South 451 519 33,000  Level Denver Center
Sun 07:45:54 PM 42.8914 -106.5642 171° South 444 511 33,000  Level Denver Center
Sun 07:46:56 PM 42.7536 -106.5331 171° South 449 517 33,000  Level Denver Center
Sun 07:47:58 PM 42.6375 -106.5064 170° South 445 512 33,000  Level Denver Center
Sun 07:49:00 PM 42.4997 -106.4756 171° South 448 516 33,000  Level Denver Center
Sun 07:50:02 PM 42.3828 -106.4500 171° South 448 516 33,000  Level Denver Center
Sun 07:51:04 PM 42.2647 -106.4233 171° South 449 517 33,000 -484 Level Denver Center
Sun 07:52:06 PM 42.1219 -106.3919 171° South 461 531 32,000 -488 Descending Denver Center
Sun 07:53:07 PM 41.9994 -106.3636 170° South 468 539 32,000  Level Denver Center
Sun 07:54:09 PM 41.8597 -106.3333 171° South 460 529 32,000  Level Denver Center
Sun 07:55:11 PM 41.7394 -106.3075 171° South 457 526 32,000 -48 Level Denver Center
Sun 07:56:13 PM 41.6022 -106.2767 170° South 450 518 31,900 -581 Descending Denver Center
Sun 07:57:15 PM 41.4858 -106.2503 170° South 445 512 30,800 -1,113 Descending Denver Center
Sun 07:58:17 PM 41.3556 -106.2014 164° South 437 503 29,600 -1,258 Descending Denver Center
Sun 07:59:19 PM 41.2442 -106.1533 162° South 439 505 28,200 -1,238 Descending Denver Center
Sun 08:00:23 PM 41.1178 -106.0994 162° South 431 496 27,000 -571 Descending Denver Center
Sun 08:01:25 PM 41.0172 -106.0408 156° South 416 479 27,000 -532 Level Denver Center
Sun 08:02:27 PM 40.8922 -105.9644 155° Southeast 420 483 25,900 -1,024 Descending Denver Center
Sun 08:03:28 PM 40.8325 -105.8561 126° Southeast 450 518 24,900 -1,210 Descending Denver Center
Sun 08:04:31 PM 40.7478 -105.6997 126° Southeast 437 503 23,400 -1,344 Descending Denver Center
Sun 08:05:33 PM 40.6819 -105.5828 127° Southeast 406 467 22,100 -1,258 Descending Denver Center
Sun 08:06:35 PM 40.6181 -105.4667 126° Southeast 394 453 20,800 -1,258 Descending Denver Center
Sun 08:07:37 PM 40.5550 -105.3533 126° Southeast 385 443 19,500 -1,355 Descending Denver Center
Sun 08:08:39 PM 40.4975 -105.2467 125° Southeast 365 420 18,000 -1,366 Descending Denver Center
Sun 08:09:40 PM 40.4600 -105.1228 112° Southeast 382 440 16,700 -1,258 Descending Denver Center
Sun 08:10:43 PM 40.4172 -104.9731 111° Southeast 359 413 15,400 -912 Descending Denver Center
Sun 08:11:45 PM 40.3794 -104.8703 116° Southeast 298 343 14,800 -919 Descending Denver Center
Sun 08:12:47 PM 40.3239 -104.8072 139° Southeast 270 311 13,500 -1,258 Descending Denver Center
Sun 08:13:49 PM 40.2639 -104.7581 148° Southeast 257 296 12,200 -1,403 Descending Denver Center
Sun 08:14:51 PM 40.2017 -104.7050 147° Southeast 250 288 10,600 -1,065 Descending Denver Center
Sun 08:15:53 PM 40.1353 -104.6942 173° South 243 280 10,000 -919 Descending Denver Center
Sun 08:16:55 PM 40.0656 -104.6939 180° South 234 269 8,700 -1,161 Descending Denver Center
Sun 08:17:57 PM 40.0092 -104.6947 181° South 193 222 7,600 -1,065 Descending Denver Center
Sun 08:18:59 PM 39.9558 -104.6953 180° South 177 204 6,500 -1,065 Descending Denver Center

Login

Don't have an account? Register now (free) for customized features, flight alerts, and more!